Webcam op het Zuiden Meer informatie Webcam op het Zuiden


Webcam op het Westen Meer informatie Webcam op het Westen


Onweer radar Meer informatie blitzortung!


Regen radar  rain snow radar


Lokaal brand risico:
CBI


Regionaal brand risico: Meer informatie


Lokaal brand risico:
Gebaseerd op actuele waarde
CBI


Bezoek ook deze websites:

Template documentation
and downloads

And another site



Het weer levert geen direct gevaar op.    Er zijn geen waarschuwingen afgegeven.

METAR rapporten vliegvelden

   
ETWM - Meppen, Germany
Afstand tot: O 29 km
Gewijzigd: 11-04-2021 20:20
  
  
   Wind: NW 11.1 km/h
Wind: NW 11.1 km/h
Temperatuur: 4°C
Voelt als: 1°C
Dauwpunt: 0°C
Vochtigheid: 75%
Barometer: 1017 hPa
ETWM 111820Z AUTO 32006KT //// // ////// 04/00 Q1017 ///
EHGG - Groningen/Eelde, Netherlands
Afstand tot: NNW 47 km
Gewijzigd: 11-04-2021 20:55
Helder  
Helder  
   Wind: WNW 9.3 km/h
Wind: WNW 9.3 km/h
Temperatuur: 2°C
Voelt als: -1°C
Dauwpunt: 0°C
Vochtigheid: 87%
Barometer: 1018 hPa
Bewolking: Helder
Zicht: meer dan 10 km
Bewolking: Helder
EHGG 111855Z AUTO 30005KT 9999 NCD 02/00 Q1018 NOSIG
EDDG - Muenster/Osnabru, Germany
Afstand tot: ZO 87 km
Gewijzigd: 11-04-2021 20:50
Licht bewolkt  
Licht bewolkt  
   Wind: NNW 11.1 km/h
Wind: NNW 11.1 km/h
Temperatuur: 5°C
Voelt als: 2°C
Dauwpunt: 1°C
Vochtigheid: 76%
Barometer: 1017 hPa
Bewolking: Licht bewolkt
Zicht: meer dan 10 km
Bewolking: Licht bewolkt 2000 ft
EDDG 111850Z 34006KT 9999 FEW020 05/01 Q1017 NOSIG
EHLW - Leeuwarden Rnlaf, Netherlands
Afstand tot: NW 93 km
Gewijzigd: 11-04-2021 20:55
Licht bewolkt  
Licht bewolkt  
   Wind: NW 13 km/h
Wind: NW 13 km/h
Temperatuur: 2°C
Voelt als: -2°C
Dauwpunt: -1°C
Vochtigheid: 81%
Barometer: 1018 hPa
Bewolking: Licht bewolkt
Zicht: meer dan 10 km
Bewolking: Licht bewolkt 6200 ft
EHLW 111855Z AUTO 32007KT 280V350 9999 FEW062 02/M01 Q1018 BLU
ETNT - Wittmundhaven(Ga, Germany
Afstand tot: NNO 100 km
Gewijzigd: 11-04-2021 20:20
  
  
   Wind: NW 18.5 km/h
Wind: NW 18.5 km/h
Temperatuur: 4°C
Voelt als: 0°C
Dauwpunt: 0°C
Vochtigheid: 75%
Barometer: 1016 hPa
Zicht: 9 km
ETNT 111820Z AUTO 31010KT 9000 // ////// 04/00 Q1016 ///
ETND - Diepholz (ger-Af, Germany
Afstand tot: O 104 km
Gewijzigd: 09-04-2021 11:20
Verouderd
Grotendeels bewolkt  
Grotendeels bewolkt  
   Wind: ZW 29.6 km/h
Wind: ZW 29.6 km/h
Temperatuur: 9°C
Voelt als: 6°C
Dauwpunt: 3°C
Vochtigheid: 66%
Barometer: 1012 hPa
Bewolking: Grotendeels bewolkt
Zicht: meer dan 10 km
Bewolking: Licht bewolkt 4200 ft,
Grotendeels bewolkt 6000 ft
ETND 090920Z 22016KT 9999 FEW042 BKN060 09/03 Q1012 BLU
ETNT - Wittmundhaven(Ga, Germany
Afstand tot: NNO 102 km
Gewijzigd: 11-04-2021 20:20
  
  
   Wind: NW 18.5 km/h
Wind: NW 18.5 km/h
Temperatuur: 4°C
Voelt als: 0°C
Dauwpunt: 0°C
Vochtigheid: 75%
Barometer: 1016 hPa
Zicht: 9 km
ETNT 111820Z AUTO 31010KT 9000 // ////// 04/00 Q1016 ///
EHDL - Deelen Rnlafb, Netherlands
Afstand tot: ZW 103 km
Gewijzigd: 11-04-2021 20:55
Helder  
Helder  
   Wind: NNW 9.3 km/h
Wind: NNW 9.3 km/h
Temperatuur: 3°C
Voelt als: 1°C
Dauwpunt: -2°C
Vochtigheid: 70%
Barometer: 1018 hPa
Bewolking: Helder
Zicht: meer dan 10 km
Bewolking: Helder
EHDL 111855Z AUTO 33005KT 330V030 9999 NCD 03/M02 Q1018 BLU
EHMA - Awg-1 Sea, Netherlands
Afstand tot: NW 105 km
Gewijzigd: 11-04-2021 20:55
Licht bewolkt  
Licht bewolkt  
   Wind: NW 29.6 km/h
Wind: NW 29.6 km/h
Temperatuur: 5°C
Voelt als: 0°C
Dauwpunt: 0°C
Vochtigheid: 70%
Barometer: 1017 hPa
Bewolking: Licht bewolkt
Zicht: meer dan 10 km
Bewolking: Licht bewolkt 1800 ft
EHMA 111855Z AUTO 31016KT 9999 FEW018 05/M00 Q1017
EDDW - Bremen, Germany
Afstand tot: ONO 135 km
Gewijzigd: 11-04-2021 20:50
Gedeeltelijk bewolkt  
Gedeeltelijk bewolkt  
   Wind: WNW 16.7 km/h
Wind: WNW 16.7 km/h
Temperatuur: 4°C
Voelt als: 0°C
Dauwpunt: 1°C
Vochtigheid: 81%
Barometer: 1016 hPa
Bewolking: Gedeeltelijk bewolkt
Zicht: meer dan 10 km
Bewolking: Licht bewolkt 1700 ft,
Gedeeltelijk bewolkt 3500 ft
EDDW 111850Z 30009KT 9999 FEW017 SCT035 04/01 Q1016 NOSIG
EHVL - Vlieland Island, Netherlands
Afstand tot: WNW 138 km
Gewijzigd: 11-04-2021 20:55
Licht bewolkt  
Licht bewolkt  
   Wind: NW 24.1 km/h
Wind: NW 24.1 km/h
Temperatuur: 5°C
Voelt als: 1°C
Dauwpunt: -1°C
Vochtigheid: 66%
Barometer: 1019 hPa
Bewolking: Licht bewolkt
Zicht: meer dan 10 km
Bewolking: Licht bewolkt 2700 ft
EHVL 111855Z AUTO 32013KT 9999 FEW027 05/M01 Q1019 BLU
EDLV - Niederrhein, Germany
Afstand tot: ZZW 139 km
Gewijzigd: 11-04-2021 20:50
Helder  
Helder  
   Wind: varieert 3.7 km/h
Wind: varieert 3.7 km/h
Temperatuur: 5°C
Dauwpunt: -2°C
Vochtigheid: 61%
Barometer: 1018 hPa
Zicht: meer dan 10 km
Bewolking: Helder
EDLV 111850Z VRB02KT CAVOK 05/M02 Q1018
EHKD - De Kooy (navy), Netherlands
Afstand tot: W 144 km
Gewijzigd: 11-04-2021 20:55
Licht bewolkt  
Licht bewolkt  
   Wind: NNW 9.3 km/h
Wind: NNW 9.3 km/h
Temperatuur: 4°C
Voelt als: 2°C
Dauwpunt: 0°C
Vochtigheid: 75%
Barometer: 1019 hPa
Bewolking: Licht bewolkt
Zicht: meer dan 10 km
Bewolking: Licht bewolkt 2400 ft
EHKD 111855Z AUTO 34005KT 300V050 9999 FEW024 04/M00 Q1019 BLU
EDLW - Dortmund/Wickede, Germany
Afstand tot: ZZO 150 km
Gewijzigd: 11-04-2021 20:50
Grotendeels bewolkt  
Grotendeels bewolkt  
   Wind: NW 9.3 km/h
Wind: NW 9.3 km/h
Temperatuur: 5°C
Voelt als: 3°C
Dauwpunt: 1°C
Vochtigheid: 76%
Barometer: 1017 hPa
Bewolking: Grotendeels bewolkt
Zicht: meer dan 10 km
Bewolking: Licht bewolkt 2100 ft,
Grotendeels bewolkt 4900 ft
EDLW 111850Z 31005KT 270V350 9999 FEW021 BKN049 05/01 Q1017
EHVK - Volkel Rnlafb, Netherlands
Afstand tot: ZZW 149 km
Gewijzigd: 11-04-2021 20:55
Helder  
Helder  
   Wind: varieert 3.7 km/h
Wind: varieert 3.7 km/h
Temperatuur: 4°C
Dauwpunt: -1°C
Vochtigheid: 70%
Barometer: 1019 hPa
Bewolking: Helder
Zicht: meer dan 10 km
Bewolking: Helder
EHVK 111855Z AUTO VRB02KT 9999 NCD 04/M01 Q1019 BLU
EDLW - Dortmund/Wickede, Germany
Afstand tot: ZZO 150 km
Gewijzigd: 11-04-2021 20:50
Grotendeels bewolkt  
Grotendeels bewolkt  
   Wind: NW 9.3 km/h
Wind: NW 9.3 km/h
Temperatuur: 5°C
Voelt als: 3°C
Dauwpunt: 1°C
Vochtigheid: 76%
Barometer: 1017 hPa
Bewolking: Grotendeels bewolkt
Zicht: meer dan 10 km
Bewolking: Licht bewolkt 2100 ft,
Grotendeels bewolkt 4900 ft
EDLW 111850Z 31005KT 270V350 9999 FEW021 BKN049 05/01 Q1017
EHMG - L9-Ff-1 Sea, Netherlands
Afstand tot: NW 155 km
Gewijzigd: 11-04-2021 20:55
Licht bewolkt  
Licht bewolkt  
   Wind: NW 24.1 km/h
Wind: NW 24.1 km/h
Temperatuur: 5°C
Voelt als: 1°C
Dauwpunt: -1°C
Vochtigheid: 66%
Barometer: 1019 hPa
Bewolking: Licht bewolkt
Zicht: meer dan 10 km
Bewolking: Licht bewolkt 1600 ft
EHMG 111855Z AUTO 32013KT 9999 FEW016 05/M01 Q1019
ETHB - Buckeburg(Ger-Ar, Germany
Afstand tot: OZO 161 km
Gewijzigd: 11-04-2021 20:20
  
  
   Wind: varieert Kalm
Wind: varieert Kalm
ETHB 111820Z AUTO /////KT //// // ////// ///// Q//// ///
ETMN - Nordholz (ger-Na, Germany
Afstand tot: NO 164 km
Gewijzigd: 11-04-2021 20:20
Grotendeels bewolkt  
Grotendeels bewolkt  
   Wind: NW 22.2 km/h
Wind: NW 22.2 km/h
Temperatuur: 4°C
Voelt als: -1°C
Dauwpunt: 1°C
Vochtigheid: 81%
Barometer: 1014 hPa
Bewolking: Grotendeels bewolkt
Zicht: meer dan 10 km
Bewolking: Gedeeltelijk bewolkt 1300 ft,
Grotendeels bewolkt 3000 ft
ETMN 111820Z 31012KT 9999 SCT013 BKN030 04/01 Q1014 BLU
EDDL - Duesseldorf, Germany
Afstand tot: Z 165 km
Gewijzigd: 11-04-2021 20:50
Gedeeltelijk bewolkt  
Gedeeltelijk bewolkt  
   Wind: NNW 13 km/h
Wind: NNW 13 km/h
Temperatuur: 6°C
Voelt als: 3°C
Dauwpunt: 0°C
Vochtigheid: 66%
Barometer: 1018 hPa
Bewolking: Gedeeltelijk bewolkt
Zicht: meer dan 10 km
Bewolking: Licht bewolkt 2500 ft,
Gedeeltelijk bewolkt 3500 ft
EDDL 111850Z 34007KT 9999 FEW025 SCT035 06/00 Q1018 NOSIG
EDLN - Monchengladbach, Germany
Afstand tot: Z 174 km
Gewijzigd: 11-04-2021 20:50
Grotendeels bewolkt  
Grotendeels bewolkt  
   Wind: NNW 13 km/h
Wind: NNW 13 km/h
Temperatuur: 6°C
Voelt als: 3°C
Dauwpunt: 1°C
Vochtigheid: 71%
Barometer: 1018 hPa
Bewolking: Grotendeels bewolkt
Zicht: meer dan 10 km
Bewolking: Grotendeels bewolkt 5700 ft
EDLN 111850Z AUTO 33007KT 9999 // BKN057/// 06/01 Q1018

Script ontwikkeld door  Saratoga-weather.org Aangepast voor de template door  Weerstation Leuven

U vindt ons ook hier:

Het Weer Aktueel

European Weather Network

Weather Underground

Wetterpage 24

Apparatuur in gebruik:

Weerstation
Davis VP2

Weerprogramma
Meteohub

Hardware
RaspberryPI, Wireless Weather Envoy, MeteoStick, TP-Link MR3020

Leverancier
Weerhuisje.nl weerstations

Davis VP2

Meteohub

RaspberryPI, Wireless Weather Envoy, MeteoStick, TP-Link MR3020

Weerhuisje.nl weerstations